createdAt,value
2023-07-18T00:01:33.126Z,20.55
2023-07-18T00:03:59.755Z,20.54
2023-07-18T00:06:26.296Z,20.57
2023-07-18T00:08:52.855Z,20.59
2023-07-18T00:11:19.734Z,20.50
2023-07-18T00:13:46.488Z,20.13
2023-07-18T00:16:13.159Z,19.91
2023-07-18T00:18:39.736Z,20.12
2023-07-18T00:21:06.685Z,20.23
2023-07-18T00:23:33.248Z,20.19
2023-07-18T00:25:59.784Z,19.92
2023-07-18T00:28:26.554Z,19.76
2023-07-18T00:30:53.103Z,19.76
2023-07-18T00:33:19.660Z,19.79
2023-07-18T00:35:46.150Z,19.73
2023-07-18T00:38:15.732Z,19.49
2023-07-18T00:40:42.281Z,19.65
2023-07-18T00:43:15.949Z,19.75
2023-07-18T00:45:44.196Z,19.66
2023-07-18T00:48:11.650Z,19.52
2023-07-18T00:50:39.114Z,19.64
2023-07-18T00:53:06.139Z,19.67
2023-07-18T00:55:32.869Z,19.92
2023-07-18T00:58:00.914Z,19.84
2023-07-18T01:00:28.046Z,19.65
2023-07-18T01:02:55.310Z,19.54
2023-07-18T01:05:22.115Z,19.30
2023-07-18T01:07:49.741Z,19.45
2023-07-18T01:10:17.276Z,19.53
2023-07-18T01:12:45.204Z,19.35
2023-07-18T01:15:14.321Z,19.07
2023-07-18T01:17:47.850Z,19.42
2023-07-18T01:20:19.612Z,19.37
2023-07-18T01:22:47.724Z,19.29
2023-07-18T01:25:17.775Z,19.25
2023-07-18T01:27:45.826Z,19.47
2023-07-18T01:30:13.513Z,19.39
2023-07-18T01:32:40.099Z,19.29
2023-07-18T01:35:09.303Z,19.36
2023-07-18T01:37:38.267Z,19.16
2023-07-18T01:40:07.645Z,19.14
2023-07-18T01:42:34.207Z,18.96
2023-07-18T01:45:00.856Z,19.09
2023-07-18T01:47:27.431Z,19.08
2023-07-18T01:49:54.244Z,19.01
2023-07-18T01:52:20.786Z,18.89
2023-07-18T01:54:47.243Z,18.97
2023-07-18T01:57:13.776Z,19.12
2023-07-18T01:59:40.276Z,19.12
2023-07-18T02:02:07.636Z,19.11
2023-07-18T02:04:34.376Z,19.19
2023-07-18T02:07:01.312Z,19.09
2023-07-18T02:09:29.134Z,19.03
2023-07-18T02:11:55.870Z,19.12
2023-07-18T02:14:22.709Z,19.10
2023-07-18T02:16:49.343Z,19.15
2023-07-18T02:19:15.935Z,19.14
2023-07-18T02:21:42.494Z,19.27
2023-07-18T02:24:08.977Z,19.22
2023-07-18T02:26:36.534Z,19.05
2023-07-18T02:29:03.092Z,19.17
2023-07-18T02:31:29.697Z,19.08
2023-07-18T02:33:56.303Z,19.09
2023-07-18T02:36:23.018Z,19.00
2023-07-18T02:38:49.530Z,18.94
2023-07-18T02:41:16.056Z,19.12
2023-07-18T02:43:42.587Z,19.29
2023-07-18T02:46:09.133Z,19.10
2023-07-18T02:48:35.703Z,19.16
2023-07-18T02:51:02.267Z,18.78
2023-07-18T02:53:28.796Z,18.92
2023-07-18T02:55:55.481Z,18.94
2023-07-18T02:58:23.451Z,18.98
2023-07-18T03:00:52.468Z,18.96
2023-07-18T03:03:19.021Z,19.06
2023-07-18T03:05:45.615Z,18.87
2023-07-18T03:08:12.124Z,18.96
2023-07-18T03:10:39.928Z,18.80
2023-07-18T03:13:06.459Z,18.88
2023-07-18T03:15:33.026Z,18.94
2023-07-18T03:17:59.827Z,18.97
2023-07-18T03:20:27.953Z,18.89
2023-07-18T03:22:54.531Z,19.02
2023-07-18T03:25:21.933Z,18.95
2023-07-18T03:27:48.671Z,18.93
2023-07-18T03:30:15.448Z,18.92
2023-07-18T03:32:42.266Z,19.00
2023-07-18T03:35:10.470Z,18.91
2023-07-18T03:37:37.060Z,18.88
2023-07-18T03:40:07.695Z,18.86
2023-07-18T03:42:35.060Z,18.68
2023-07-18T03:45:01.840Z,18.67
2023-07-18T03:47:29.416Z,18.70
2023-07-18T03:49:57.295Z,18.83
2023-07-18T03:52:23.865Z,18.69
2023-07-18T03:54:50.449Z,18.73
2023-07-18T03:57:17.023Z,18.34
2023-07-18T03:59:43.526Z,18.33
2023-07-18T04:02:10.162Z,18.25
2023-07-18T04:04:36.721Z,18.20
2023-07-18T04:07:03.698Z,18.10
2023-07-18T04:09:30.752Z,18.33
2023-07-18T04:11:57.309Z,18.36
2023-07-18T04:14:23.840Z,18.36
2023-07-18T04:16:50.409Z,18.31
2023-07-18T04:19:16.897Z,18.20
2023-07-18T04:21:43.407Z,18.02
2023-07-18T04:24:10.283Z,18.06
2023-07-18T04:26:37.207Z,18.08
2023-07-18T04:29:07.229Z,18.13
2023-07-18T04:31:34.117Z,18.15
2023-07-18T04:34:00.816Z,18.32
2023-07-18T04:36:27.321Z,18.49
2023-07-18T04:38:53.806Z,18.50
2023-07-18T04:41:20.547Z,18.69
2023-07-18T04:43:48.555Z,18.67
2023-07-18T04:46:15.111Z,18.67
2023-07-18T04:48:41.708Z,18.85
2023-07-18T04:51:08.314Z,18.81
2023-07-18T04:53:34.863Z,18.93
2023-07-18T04:56:01.511Z,18.97
2023-07-18T04:58:28.853Z,19.11
2023-07-18T05:00:56.640Z,19.18
2023-07-18T05:03:24.032Z,19.30
2023-07-18T05:05:50.679Z,19.27
2023-07-18T05:08:18.026Z,19.12
2023-07-18T05:10:45.075Z,19.31
2023-07-18T05:13:11.857Z,19.46
2023-07-18T05:15:39.113Z,19.49
2023-07-18T05:18:05.692Z,19.46
2023-07-18T05:20:32.329Z,19.59
2023-07-18T05:22:59.914Z,19.65
2023-07-18T05:25:26.539Z,19.42
2023-07-18T05:27:53.086Z,19.61
2023-07-18T05:30:20.823Z,19.64
2023-07-18T05:32:51.481Z,19.84
2023-07-18T05:35:18.057Z,20.02
2023-07-18T05:37:45.392Z,20.18
2023-07-18T05:40:12.743Z,20.36
2023-07-18T05:42:40.964Z,20.68
2023-07-18T05:45:09.233Z,20.74
2023-07-18T05:47:39.774Z,21.15
2023-07-18T05:50:07.664Z,21.15
2023-07-18T05:52:34.713Z,21.27
2023-07-18T05:55:01.540Z,21.34
2023-07-18T05:57:28.219Z,21.31
2023-07-18T05:59:54.800Z,21.45
2023-07-18T06:02:22.559Z,21.78
2023-07-18T06:04:49.242Z,22.05
2023-07-18T06:07:17.200Z,22.39
2023-07-18T06:09:44.343Z,22.62
2023-07-18T06:12:11.104Z,22.83
2023-07-18T06:14:37.673Z,22.42
2023-07-18T06:17:04.728Z,22.53
2023-07-18T06:19:31.413Z,22.87
2023-07-18T06:21:58.429Z,22.48
2023-07-18T06:24:25.687Z,23.05
2023-07-18T06:26:52.618Z,23.78
2023-07-18T06:29:20.157Z,24.12
2023-07-18T06:31:48.215Z,24.71
2023-07-18T06:34:14.925Z,25.12
2023-07-18T06:36:41.546Z,25.19
2023-07-18T06:39:08.202Z,25.62
2023-07-18T06:41:34.826Z,25.87
2023-07-18T06:44:01.348Z,25.91
2023-07-18T06:46:28.743Z,25.72
2023-07-18T06:48:55.258Z,25.67
2023-07-18T06:51:21.958Z,25.27
2023-07-18T06:53:48.532Z,25.95
2023-07-18T06:56:15.267Z,26.60
2023-07-18T06:58:42.858Z,27.16
2023-07-18T07:01:11.590Z,27.35
2023-07-18T07:03:38.583Z,27.74
2023-07-18T07:06:12.136Z,27.70
2023-07-18T07:08:38.725Z,27.18
2023-07-18T07:11:09.564Z,26.46
2023-07-18T07:13:37.508Z,27.11
2023-07-18T07:16:05.053Z,28.01
2023-07-18T07:18:31.995Z,27.89
2023-07-18T07:20:58.726Z,28.80
2023-07-18T07:23:25.365Z,29.44
2023-07-18T07:25:52.420Z,29.03
2023-07-18T07:28:20.563Z,28.67
2023-07-18T07:30:47.323Z,28.77
2023-07-18T07:33:14.129Z,28.73
2023-07-18T07:35:40.798Z,29.16
2023-07-18T07:38:07.822Z,29.40
2023-07-18T07:40:34.521Z,29.17
2023-07-18T07:43:01.130Z,29.83
2023-07-18T07:45:27.717Z,29.93
2023-07-18T07:47:54.698Z,30.31
2023-07-18T07:50:21.514Z,30.06
2023-07-18T07:52:48.272Z,30.69
2023-07-18T07:55:14.980Z,30.92
2023-07-18T07:57:42.377Z,31.56
2023-07-18T08:00:09.634Z,30.62
2023-07-18T08:02:36.246Z,30.91
2023-07-18T08:05:02.881Z,31.66
2023-07-18T08:07:30.074Z,30.33
2023-07-18T08:09:56.752Z,30.65
2023-07-18T08:12:23.471Z,30.90
2023-07-18T08:14:50.193Z,31.84
2023-07-18T08:17:18.129Z,31.64
2023-07-18T08:19:44.844Z,32.32
2023-07-18T08:22:11.768Z,32.60
2023-07-18T08:24:39.056Z,32.94
2023-07-18T08:27:05.797Z,32.70
2023-07-18T08:29:34.648Z,32.82
2023-07-18T08:32:01.447Z,33.52
2023-07-18T08:34:28.344Z,33.62
2023-07-18T08:36:54.966Z,33.75
2023-07-18T08:39:21.782Z,33.76
2023-07-18T08:41:52.814Z,34.00
2023-07-18T08:44:20.436Z,33.03
2023-07-18T08:46:47.925Z,34.24
2023-07-18T08:49:16.657Z,34.49
2023-07-18T08:51:44.536Z,35.37
2023-07-18T08:54:12.055Z,35.55
2023-07-18T08:56:41.482Z,36.23
2023-07-18T08:59:08.306Z,36.63
2023-07-18T09:01:34.990Z,37.30
2023-07-18T09:04:02.178Z,37.07
2023-07-18T09:06:29.090Z,36.88
2023-07-18T09:08:56.297Z,35.64
2023-07-18T09:11:23.155Z,36.27
2023-07-18T09:13:50.135Z,35.99
2023-07-18T09:16:25.147Z,35.24
2023-07-18T09:18:53.960Z,33.32
2023-07-18T09:21:21.925Z,35.32
2023-07-18T09:23:49.142Z,35.84
2023-07-18T09:26:18.446Z,33.96
2023-07-18T09:28:44.993Z,33.37
2023-07-18T09:31:27.944Z,32.49
2023-07-18T09:33:55.640Z,32.64
2023-07-18T09:36:24.258Z,33.42
2023-07-18T09:38:51.988Z,34.26
2023-07-18T09:41:21.881Z,34.28
2023-07-18T09:43:49.383Z,35.45
2023-07-18T09:46:17.492Z,35.12
2023-07-18T09:48:48.711Z,35.57
2023-07-18T09:51:21.792Z,35.80
2023-07-18T09:53:49.328Z,35.57
2023-07-18T09:56:17.190Z,36.62
2023-07-18T09:58:45.452Z,37.05
2023-07-18T10:01:13.714Z,37.30
2023-07-18T10:03:41.171Z,38.05
2023-07-18T10:06:10.581Z,38.32
2023-07-18T10:08:40.623Z,38.22
2023-07-18T10:11:10.869Z,36.77
2023-07-18T10:13:55.873Z,38.06
2023-07-18T10:16:23.797Z,37.06
2023-07-18T10:18:52.136Z,36.18
2023-07-18T10:21:36.340Z,35.78
2023-07-18T10:24:29.425Z,33.60
2023-07-18T10:26:59.997Z,32.00
2023-07-18T10:29:35.323Z,30.94
2023-07-18T10:32:01.929Z,30.04
2023-07-18T10:34:28.489Z,28.93
2023-07-18T10:37:00.411Z,28.49
2023-07-18T10:39:38.510Z,27.81
2023-07-18T10:42:29.860Z,27.60
2023-07-18T10:45:00.928Z,27.31
2023-07-18T10:47:29.221Z,26.73
2023-07-18T10:49:56.584Z,26.24
2023-07-18T10:52:23.337Z,25.44
2023-07-18T10:54:56.543Z,25.56
2023-07-18T10:57:28.902Z,25.49
2023-07-18T10:59:56.288Z,25.62
2023-07-18T11:02:23.182Z,25.72
2023-07-18T11:04:54.865Z,25.58
2023-07-18T11:07:33.507Z,25.22
2023-07-18T11:10:01.020Z,25.13
2023-07-18T11:12:27.596Z,25.40
2023-07-18T11:14:56.397Z,26.39
2023-07-18T11:17:24.419Z,27.20
2023-07-18T11:19:50.947Z,26.74
2023-07-18T11:22:17.742Z,26.50
2023-07-18T11:24:46.355Z,26.68
2023-07-18T11:27:23.050Z,26.16
2023-07-18T11:29:50.832Z,25.79
2023-07-18T11:32:40.255Z,25.83
2023-07-18T11:35:11.772Z,26.14
2023-07-18T11:37:43.032Z,26.34
2023-07-18T11:40:11.764Z,27.39
2023-07-18T11:42:46.233Z,28.05
2023-07-18T11:45:12.895Z,28.77
2023-07-18T11:47:53.349Z,29.24
2023-07-18T11:50:20.700Z,28.46
2023-07-18T11:52:52.055Z,27.86
2023-07-18T11:55:20.723Z,27.70
2023-07-18T11:57:49.320Z,28.29
2023-07-18T12:00:19.833Z,29.09
2023-07-18T12:02:47.475Z,29.79
2023-07-18T12:05:17.835Z,30.75
2023-07-18T12:07:48.192Z,31.40
2023-07-18T12:10:19.667Z,31.83
2023-07-18T12:12:46.356Z,32.44
2023-07-18T12:15:13.959Z,32.16
2023-07-18T12:17:41.055Z,32.29
2023-07-18T12:20:08.496Z,32.22
2023-07-18T12:22:35.654Z,32.34
2023-07-18T12:25:04.848Z,31.50
2023-07-18T12:27:31.415Z,31.14
2023-07-18T12:29:58.000Z,30.60
2023-07-18T12:32:28.059Z,30.71
2023-07-18T12:34:55.912Z,30.68
2023-07-18T12:37:22.482Z,30.96
2023-07-18T12:39:49.073Z,30.29
2023-07-18T12:42:15.646Z,30.68
2023-07-18T12:44:44.981Z,31.38
2023-07-18T12:47:12.186Z,31.40
2023-07-18T12:52:09.290Z,32.53
2023-07-18T12:54:35.832Z,33.27
2023-07-18T12:57:02.499Z,34.23
2023-07-18T12:59:29.168Z,33.14
2023-07-18T13:01:56.751Z,33.10
2023-07-18T13:04:23.619Z,33.05
2023-07-18T13:06:50.949Z,33.00
2023-07-18T13:09:17.502Z,33.40
2023-07-18T13:11:44.144Z,33.12
2023-07-18T13:14:10.660Z,32.62
2023-07-18T13:16:37.271Z,32.47
2023-07-18T13:19:05.218Z,32.81
2023-07-18T13:21:32.220Z,32.60
2023-07-18T13:23:58.780Z,33.21
2023-07-18T13:26:25.354Z,33.35
2023-07-18T13:28:51.877Z,33.62
2023-07-18T13:31:18.635Z,33.55
2023-07-18T13:33:45.283Z,33.85
2023-07-18T13:36:12.622Z,33.79
2023-07-18T13:38:39.239Z,33.88
2023-07-18T13:41:09.280Z,34.40
2023-07-18T13:43:36.895Z,33.25
2023-07-18T13:46:03.916Z,33.08
2023-07-18T13:48:33.770Z,32.79
2023-07-18T13:51:01.027Z,32.33
2023-07-18T13:53:27.771Z,32.51
2023-07-18T13:55:54.393Z,33.27
2023-07-18T13:58:20.966Z,33.62
2023-07-18T14:00:47.835Z,33.15
2023-07-18T14:03:32.212Z,32.11
2023-07-18T14:06:01.020Z,31.87
2023-07-18T14:08:29.280Z,32.38
2023-07-18T14:10:56.117Z,31.91
2023-07-18T14:13:22.947Z,31.68
2023-07-18T14:15:49.600Z,32.12
2023-07-18T14:18:16.414Z,32.45
2023-07-18T14:20:43.062Z,32.58
2023-07-18T14:23:10.036Z,32.71
2023-07-18T14:25:36.702Z,33.14
2023-07-18T14:28:03.232Z,32.35
2023-07-18T14:30:29.855Z,32.11
2023-07-18T14:32:56.482Z,31.83
2023-07-18T14:35:24.203Z,31.63
2023-07-18T14:37:51.858Z,31.94
2023-07-18T14:40:18.509Z,31.84
2023-07-18T14:42:45.438Z,31.77
2023-07-18T14:45:12.015Z,31.62
2023-07-18T14:47:38.616Z,31.99
2023-07-18T14:50:05.862Z,31.96
2023-07-18T14:52:32.422Z,31.47
2023-07-18T14:54:59.113Z,31.25
2023-07-18T14:57:28.706Z,31.24
2023-07-18T14:59:55.335Z,31.13
2023-07-18T15:02:22.115Z,31.21
2023-07-18T15:04:48.850Z,31.12
2023-07-18T15:07:15.793Z,31.12
2023-07-18T15:09:42.309Z,31.14
2023-07-18T15:12:09.322Z,31.03
2023-07-18T15:14:36.105Z,30.46
2023-07-18T15:17:02.715Z,30.54
2023-07-18T15:19:29.302Z,30.44
2023-07-18T15:21:56.356Z,30.44
2023-07-18T15:24:22.948Z,30.15
2023-07-18T15:26:49.526Z,30.09
2023-07-18T15:29:16.061Z,30.01
2023-07-18T15:31:42.739Z,30.06
2023-07-18T15:34:10.148Z,30.34
2023-07-18T15:36:36.738Z,30.52
2023-07-18T15:39:03.429Z,30.50
2023-07-18T15:41:30.025Z,30.54
2023-07-18T15:43:57.625Z,30.66
2023-07-18T15:46:24.857Z,30.74
2023-07-18T15:48:51.711Z,30.58
2023-07-18T15:51:18.424Z,30.42
2023-07-18T15:53:45.015Z,30.41
2023-07-18T15:56:15.560Z,30.43
2023-07-18T15:58:42.603Z,30.43
2023-07-18T16:01:09.445Z,30.42
2023-07-18T16:03:36.245Z,30.44
2023-07-18T16:06:03.570Z,30.39
2023-07-18T16:08:30.554Z,30.22
2023-07-18T16:10:57.192Z,30.25
2023-07-18T16:13:23.808Z,30.14
2023-07-18T16:15:50.428Z,30.09
2023-07-18T16:18:17.307Z,29.95
2023-07-18T16:20:43.823Z,29.92
2023-07-18T16:23:10.721Z,29.88
2023-07-18T16:25:37.457Z,30.01
2023-07-18T16:28:04.987Z,30.02
2023-07-18T16:30:31.794Z,29.90
2023-07-18T16:32:58.473Z,30.01
2023-07-18T16:35:25.121Z,29.80
2023-07-18T16:37:51.670Z,29.76
2023-07-18T16:40:18.262Z,29.73
2023-07-18T16:42:44.861Z,29.74
2023-07-18T16:45:11.388Z,29.63
2023-07-18T16:47:37.924Z,29.60
2023-07-18T16:50:05.931Z,29.60
2023-07-18T16:52:32.477Z,29.50
2023-07-18T16:54:59.007Z,29.58
2023-07-18T16:57:25.580Z,29.67
2023-07-18T16:59:52.173Z,29.61
2023-07-18T17:02:18.655Z,29.57
2023-07-18T17:04:45.185Z,29.45
2023-07-18T17:07:11.772Z,29.54
2023-07-18T17:09:38.249Z,29.53
2023-07-18T17:12:05.249Z,29.46
2023-07-18T17:14:32.107Z,29.40
2023-07-18T17:16:58.736Z,29.52
2023-07-18T17:19:25.313Z,29.48
2023-07-18T17:21:51.801Z,29.48
2023-07-18T17:24:18.342Z,29.47
2023-07-18T17:26:45.009Z,29.41
2023-07-18T17:29:11.644Z,29.42
2023-07-18T17:31:38.200Z,29.37
2023-07-18T17:34:05.620Z,29.32
2023-07-18T17:36:32.252Z,29.34
2023-07-18T17:38:58.751Z,29.27
2023-07-18T17:41:25.270Z,29.28
2023-07-18T17:43:51.762Z,29.21
2023-07-18T17:46:18.355Z,29.13
2023-07-18T17:48:45.501Z,29.07
2023-07-18T17:51:12.442Z,29.07
2023-07-18T17:53:39.792Z,29.16
2023-07-18T17:56:07.063Z,29.16
2023-07-18T17:58:33.574Z,29.13
2023-07-18T18:01:00.114Z,28.95
2023-07-18T18:03:26.789Z,28.94
2023-07-18T18:05:53.534Z,28.83
2023-07-18T18:08:20.122Z,28.68
2023-07-18T18:10:47.591Z,28.64
2023-07-18T18:13:15.120Z,28.52
2023-07-18T18:15:56.209Z,28.54
2023-07-18T18:18:26.396Z,28.56
2023-07-18T18:20:53.047Z,28.58
2023-07-18T18:23:31.872Z,28.55
2023-07-18T18:26:05.104Z,28.47
2023-07-18T18:28:32.895Z,28.53
2023-07-18T18:30:59.407Z,28.42
2023-07-18T18:33:26.076Z,28.33
2023-07-18T18:35:53.348Z,28.38
2023-07-18T18:38:19.999Z,28.33
2023-07-18T18:40:46.601Z,28.31
2023-07-18T18:43:13.200Z,28.22
2023-07-18T18:45:39.732Z,28.14
2023-07-18T18:48:08.022Z,28.04
2023-07-18T18:50:34.664Z,27.94
2023-07-18T18:53:01.471Z,27.86
2023-07-18T18:55:29.945Z,27.75
2023-07-18T18:57:58.033Z,27.67
2023-07-18T19:00:24.605Z,27.50
2023-07-18T19:02:51.492Z,27.48
2023-07-18T19:05:18.187Z,27.39
2023-07-18T19:07:44.705Z,27.27
2023-07-18T19:10:11.309Z,27.24
2023-07-18T19:12:37.875Z,27.15
2023-07-18T19:15:04.688Z,27.15
2023-07-18T19:17:31.355Z,27.02
2023-07-18T19:19:58.029Z,26.98
2023-07-18T19:22:24.547Z,26.83
2023-07-18T19:24:51.213Z,26.66
2023-07-18T19:27:17.872Z,26.59
2023-07-18T19:29:45.608Z,26.54
2023-07-18T19:32:12.335Z,26.50
2023-07-18T19:34:42.530Z,26.38
2023-07-18T19:37:09.242Z,26.29
2023-07-18T19:39:37.175Z,26.31
2023-07-18T19:42:07.114Z,26.10
2023-07-18T19:44:35.301Z,26.04
2023-07-18T19:47:03.125Z,25.96
2023-07-18T19:49:30.049Z,25.88
2023-07-18T19:51:59.804Z,25.70
2023-07-18T19:54:26.960Z,25.76
2023-07-18T19:56:54.362Z,25.64
2023-07-18T19:59:20.931Z,25.59
2023-07-18T20:01:47.881Z,25.51
2023-07-18T20:04:14.744Z,25.39
2023-07-18T20:06:41.700Z,25.32
2023-07-18T20:09:08.503Z,25.30
2023-07-18T20:11:35.132Z,25.27
2023-07-18T20:14:02.248Z,25.30
2023-07-18T20:16:28.830Z,25.21
2023-07-18T20:19:01.354Z,25.01
2023-07-18T20:21:29.435Z,24.84
2023-07-18T20:23:56.917Z,24.74
2023-07-18T20:26:23.671Z,24.74
2023-07-18T20:28:50.267Z,24.64
2023-07-18T20:31:17.156Z,24.66
2023-07-18T20:33:44.041Z,24.55
2023-07-18T20:36:10.671Z,24.39
2023-07-18T20:38:37.360Z,24.30
2023-07-18T20:41:06.738Z,24.31
2023-07-18T20:43:35.157Z,24.22
2023-07-18T20:46:03.643Z,24.23
2023-07-18T20:48:31.318Z,24.25
2023-07-18T20:50:59.279Z,24.20
2023-07-18T20:53:26.904Z,24.12
2023-07-18T20:55:53.476Z,24.13
2023-07-18T20:58:20.005Z,24.08
2023-07-18T21:00:46.696Z,24.10
2023-07-18T21:03:13.299Z,24.06
2023-07-18T21:05:40.433Z,23.99
2023-07-18T21:08:07.341Z,23.98
2023-07-18T21:10:34.613Z,23.95
2023-07-18T21:13:01.618Z,24.02
2023-07-18T21:15:28.319Z,24.02
2023-07-18T21:17:55.169Z,23.92
2023-07-18T21:20:21.928Z,23.91
2023-07-18T21:22:48.481Z,23.86
2023-07-18T21:25:15.061Z,23.84
2023-07-18T21:27:41.546Z,23.95
2023-07-18T21:30:08.940Z,23.86
2023-07-18T21:32:36.312Z,23.78
2023-07-18T21:35:03.867Z,23.83
2023-07-18T21:37:30.483Z,23.73
2023-07-18T21:39:57.314Z,23.79
2023-07-18T21:42:23.843Z,23.82
2023-07-18T21:44:50.492Z,23.77
2023-07-18T21:47:17.105Z,23.77
2023-07-18T21:49:43.835Z,23.69
2023-07-18T21:52:10.386Z,23.60
2023-07-18T21:54:37.058Z,23.58
2023-07-18T21:57:04.837Z,23.50
2023-07-18T21:59:31.305Z,23.50
2023-07-18T22:01:57.826Z,23.54
2023-07-18T22:04:24.398Z,23.44
2023-07-18T22:06:50.970Z,23.43
2023-07-18T22:09:17.506Z,23.41
2023-07-18T22:11:44.040Z,23.42
2023-07-18T22:14:10.530Z,23.32
2023-07-18T22:16:37.056Z,23.31
2023-07-18T22:19:03.594Z,23.42
2023-07-18T22:21:30.156Z,23.52
2023-07-18T22:23:56.675Z,23.44
2023-07-18T22:26:23.280Z,23.31
2023-07-18T22:28:49.882Z,23.04
2023-07-18T22:31:17.262Z,22.94
2023-07-18T22:33:43.836Z,22.97
2023-07-18T22:36:10.396Z,22.99
2023-07-18T22:38:37.044Z,22.90
2023-07-18T22:41:04.353Z,22.89
2023-07-18T22:43:30.925Z,22.80
2023-07-18T22:45:57.608Z,22.69
2023-07-18T22:48:24.178Z,22.62
2023-07-18T22:50:53.572Z,22.69
2023-07-18T22:53:20.324Z,22.82
2023-07-18T22:55:48.529Z,22.75
2023-07-18T22:58:15.896Z,22.74
2023-07-18T23:00:43.256Z,22.50
2023-07-18T23:03:10.030Z,22.41
2023-07-18T23:05:36.943Z,22.42
2023-07-18T23:08:05.476Z,22.32
2023-07-18T23:10:33.038Z,22.38
2023-07-18T23:12:59.887Z,22.32
2023-07-18T23:15:26.816Z,22.49
2023-07-18T23:17:53.533Z,22.17
2023-07-18T23:20:20.194Z,21.96
2023-07-18T23:22:46.774Z,21.95
2023-07-18T23:25:13.413Z,21.87
2023-07-18T23:27:40.043Z,21.97
2023-07-18T23:30:07.378Z,21.94
2023-07-18T23:32:34.101Z,22.18
2023-07-18T23:35:00.872Z,21.86
2023-07-18T23:37:27.506Z,21.67
2023-07-18T23:39:54.208Z,21.59
2023-07-18T23:42:20.808Z,21.73
2023-07-18T23:44:47.401Z,22.01
2023-07-18T23:47:13.929Z,21.98
2023-07-18T23:49:40.492Z,22.14
2023-07-18T23:52:07.442Z,22.21
2023-07-18T23:54:34.025Z,22.24
2023-07-18T23:57:00.612Z,22.16
2023-07-18T23:59:27.070Z,22.24
